< < Back
Terminal Aerodrome Forecast


Current Version              Previous Versions:   1  2  3  4  5  6  7  8  9  

Terminal Aerodrome Forecast

215
FTUS42 KMLB 191100
TAFDAB
TAF
KDAB 191138Z 1912/2012 VRB03KT P6SM FEW025 SCT060 BKN180
     FM191400 05006KT P6SM SCT030 SCT060 BKN120
     FM191900 06009KT P6SM -SHRA SCT030 BKN060 OVC100
     FM200000 04004KT P6SM -SHRA BKN030=

Latest METAR

501
SAUS80 KWBC 200500 RRB
MTRDAB
METAR KDAB 200453Z 17003KT 8SM -RA FEW015 SCT070 OVC100 22/21 A3000 RMK
AO2 SLP157 P0010 T02170211 402890217


USA.gov is the U.S. government's official web portal to all federal, state and local government web resources and services.